createdAt,value
2022-09-13T00:00:03.003Z,0.00
2022-09-13T00:01:02.892Z,0.00
2022-09-13T00:02:02.526Z,0.00
2022-09-13T00:03:02.160Z,0.00
2022-09-13T00:04:01.952Z,0.00
2022-09-13T00:05:02.337Z,0.00
2022-09-13T00:06:01.975Z,0.00
2022-09-13T00:07:02.906Z,0.00
2022-09-13T00:08:02.531Z,0.00
2022-09-13T00:09:03.009Z,0.00
2022-09-13T00:10:02.802Z,0.00
2022-09-13T00:11:02.577Z,0.00
2022-09-13T00:12:02.091Z,0.00
2022-09-13T00:13:02.466Z,0.00
2022-09-13T00:14:02.595Z,0.00
2022-09-13T00:15:02.395Z,0.00
2022-09-13T00:16:02.225Z,0.00
2022-09-13T00:17:03.065Z,0.00
2022-09-13T00:18:02.897Z,0.00
2022-09-13T00:19:02.954Z,0.00
2022-09-13T00:20:02.748Z,0.00
2022-09-13T00:21:03.244Z,0.00
2022-09-13T00:22:02.758Z,0.00
2022-09-13T00:23:03.133Z,0.00
2022-09-13T00:24:03.158Z,0.00
2022-09-13T00:25:02.840Z,0.00
2022-09-13T00:26:03.348Z,0.00
2022-09-13T00:27:01.948Z,0.00
2022-09-13T00:28:02.426Z,0.00
2022-09-13T00:29:01.955Z,0.00
2022-09-13T00:30:02.423Z,0.00
2022-09-13T00:31:02.194Z,0.00
2022-09-13T00:32:02.155Z,0.00
2022-09-13T00:33:02.474Z,0.00
2022-09-13T00:34:01.986Z,0.00
2022-09-13T00:35:02.491Z,0.00
2022-09-13T00:36:02.041Z,0.00
2022-09-13T00:37:02.549Z,0.00
2022-09-13T00:38:03.049Z,0.00
2022-09-13T00:39:02.555Z,0.00
2022-09-13T00:40:02.509Z,0.00
2022-09-13T00:41:02.426Z,0.00
2022-09-13T00:42:02.916Z,0.00
2022-09-13T00:43:02.824Z,0.00
2022-09-13T00:44:03.106Z,0.00
2022-09-13T00:45:03.009Z,0.00
2022-09-13T00:46:02.861Z,0.00
2022-09-13T00:47:02.464Z,0.00
2022-09-13T00:48:03.053Z,0.00
2022-09-13T00:49:02.579Z,0.00
2022-09-13T00:50:02.368Z,0.00
2022-09-13T00:51:02.854Z,0.00
2022-09-13T00:52:02.622Z,0.00
2022-09-13T00:53:03.142Z,0.00
2022-09-13T00:54:02.672Z,0.00
2022-09-13T00:55:03.129Z,0.00
2022-09-13T00:56:02.569Z,0.00
2022-09-13T00:57:03.050Z,0.00
2022-09-13T00:58:03.545Z,0.00
2022-09-13T00:59:03.080Z,0.00
2022-09-13T01:00:02.973Z,0.00
2022-09-13T01:01:02.973Z,0.00
2022-09-13T01:02:02.643Z,0.00
2022-09-13T01:03:02.466Z,0.00
2022-09-13T01:04:02.904Z,0.00
2022-09-13T01:05:02.683Z,0.00
2022-09-13T01:06:02.472Z,0.00
2022-09-13T01:07:02.343Z,0.00
2022-09-13T01:08:01.927Z,0.00
2022-09-13T01:09:02.411Z,0.00
2022-09-13T01:10:01.745Z,0.00
2022-09-13T01:11:02.222Z,0.00
2022-09-13T01:12:02.461Z,0.00
2022-09-13T01:13:02.980Z,0.00
2022-09-13T01:14:02.823Z,0.00
2022-09-13T01:15:02.613Z,0.00
2022-09-13T01:16:02.642Z,0.00
2022-09-13T01:17:02.251Z,0.00
2022-09-13T01:18:01.958Z,0.00
2022-09-13T01:19:02.414Z,0.00
2022-09-13T01:20:02.203Z,0.00
2022-09-13T01:21:02.058Z,0.00
2022-09-13T01:22:02.543Z,0.00
2022-09-13T01:23:02.333Z,0.00
2022-09-13T01:24:02.743Z,0.00
2022-09-13T01:25:02.568Z,0.00
2022-09-13T01:26:02.380Z,0.00
2022-09-13T01:27:02.954Z,0.00
2022-09-13T01:28:02.513Z,0.00
2022-09-13T01:29:03.030Z,0.00
2022-09-13T01:30:02.827Z,0.00
2022-09-13T01:31:02.948Z,0.00
2022-09-13T01:32:02.385Z,0.00
2022-09-13T01:33:02.227Z,0.00
2022-09-13T01:34:02.733Z,0.00
2022-09-13T01:35:02.313Z,0.00
2022-09-13T01:36:02.596Z,0.00
2022-09-13T01:37:03.092Z,0.00
2022-09-13T01:38:03.330Z,0.00
2022-09-13T01:39:02.877Z,0.00
2022-09-13T01:40:03.234Z,0.00
2022-09-13T01:41:04.844Z,0.00
2022-09-13T01:42:02.481Z,0.00
2022-09-13T01:43:02.290Z,0.00
2022-09-13T01:44:02.178Z,0.00
2022-09-13T01:45:02.606Z,0.00
2022-09-13T01:46:02.324Z,0.00
2022-09-13T01:47:02.943Z,0.00
2022-09-13T01:48:02.728Z,0.00
2022-09-13T01:49:02.518Z,0.00
2022-09-13T01:50:02.848Z,0.00
2022-09-13T01:51:02.621Z,0.00
2022-09-13T01:52:02.401Z,0.00
2022-09-13T01:53:02.167Z,0.00
2022-09-13T01:54:02.365Z,0.00
2022-09-13T01:55:02.172Z,0.00
2022-09-13T01:56:01.968Z,0.00
2022-09-13T01:57:02.534Z,0.00
2022-09-13T01:58:02.337Z,0.00
2022-09-13T01:59:02.157Z,0.00
2022-09-13T02:00:02.082Z,0.00
2022-09-13T02:01:02.079Z,0.00
2022-09-13T02:02:02.604Z,0.00
2022-09-13T02:03:02.256Z,0.00
2022-09-13T02:04:02.658Z,0.00
2022-09-13T02:05:02.687Z,0.00
2022-09-13T02:06:02.195Z,0.00
2022-09-13T02:07:02.610Z,0.00
2022-09-13T02:08:02.318Z,0.00
2022-09-13T02:09:02.815Z,0.00
2022-09-13T02:10:02.442Z,0.00
2022-09-13T02:11:02.368Z,0.00
2022-09-13T02:12:02.891Z,0.00
2022-09-13T02:13:02.929Z,0.00
2022-09-13T02:14:02.412Z,0.00
2022-09-13T02:15:02.904Z,0.00
2022-09-13T02:16:02.824Z,0.00
2022-09-13T02:17:02.262Z,0.00
2022-09-13T02:18:02.092Z,0.00
2022-09-13T02:19:02.413Z,0.00
2022-09-13T02:20:02.266Z,0.00
2022-09-13T02:21:02.200Z,0.00
2022-09-13T02:22:02.709Z,0.00
2022-09-13T02:23:02.344Z,0.00
2022-09-13T02:24:02.238Z,0.00
2022-09-13T02:25:02.789Z,0.00
2022-09-13T02:26:02.321Z,0.00
2022-09-13T02:27:02.767Z,0.00
2022-09-13T02:28:02.520Z,0.00
2022-09-13T02:29:02.289Z,0.00
2022-09-13T02:30:02.808Z,0.00
2022-09-13T02:31:02.351Z,0.00
2022-09-13T02:32:03.510Z,0.00
2022-09-13T02:33:03.028Z,0.00
2022-09-13T02:34:02.970Z,0.00
2022-09-13T02:35:03.499Z,0.00
2022-09-13T02:36:03.273Z,0.00
2022-09-13T02:37:02.831Z,0.00
2022-09-13T02:38:02.620Z,0.00
2022-09-13T02:39:02.716Z,0.00
2022-09-13T02:40:02.676Z,0.00
2022-09-13T02:41:02.394Z,0.00
2022-09-13T02:42:02.866Z,0.00
2022-09-13T02:43:02.410Z,0.00
2022-09-13T02:44:02.486Z,0.00
2022-09-13T02:45:02.277Z,0.00
2022-09-13T02:46:02.936Z,0.00
2022-09-13T02:47:02.751Z,0.00
2022-09-13T02:48:02.601Z,0.00
2022-09-13T02:49:03.103Z,0.00
2022-09-13T02:50:02.912Z,0.00
2022-09-13T02:51:02.687Z,0.00
2022-09-13T02:52:02.232Z,0.00
2022-09-13T02:53:02.724Z,0.00
2022-09-13T02:54:02.467Z,0.00
2022-09-13T02:55:02.262Z,0.00
2022-09-13T02:56:02.758Z,0.00
2022-09-13T02:57:02.565Z,0.00
2022-09-13T02:58:03.132Z,0.00
2022-09-13T02:59:02.773Z,0.00
2022-09-13T03:00:02.589Z,0.00
2022-09-13T03:01:02.587Z,0.00
2022-09-13T03:02:03.232Z,0.00
2022-09-13T03:03:03.659Z,0.00
2022-09-13T03:04:03.615Z,0.00
2022-09-13T03:05:03.486Z,0.00
2022-09-13T03:06:03.197Z,0.00
2022-09-13T03:07:02.771Z,0.00
2022-09-13T03:08:03.302Z,0.00
2022-09-13T03:09:02.875Z,0.00
2022-09-13T03:10:02.743Z,0.00
2022-09-13T03:11:03.220Z,0.00
2022-09-13T03:12:03.003Z,0.00
2022-09-13T03:13:03.466Z,0.00
2022-09-13T03:14:02.961Z,0.00
2022-09-13T03:15:03.490Z,0.00
2022-09-13T03:16:03.442Z,0.00
2022-09-13T03:17:03.275Z,0.00
2022-09-13T03:18:03.837Z,0.00
2022-09-13T03:19:03.374Z,0.00
2022-09-13T03:20:03.849Z,0.00
2022-09-13T03:21:03.801Z,0.00
2022-09-13T03:22:03.028Z,0.00
2022-09-13T03:23:03.488Z,0.00
2022-09-13T03:24:02.895Z,0.00
2022-09-13T03:25:03.407Z,0.00
2022-09-13T03:26:03.263Z,0.00
2022-09-13T03:27:03.043Z,0.00
2022-09-13T03:28:03.455Z,0.00
2022-09-13T03:29:03.550Z,0.00
2022-09-13T03:30:03.107Z,0.00
2022-09-13T03:31:03.590Z,0.00
2022-09-13T03:32:03.707Z,0.00
2022-09-13T03:33:03.341Z,0.00
2022-09-13T03:34:03.197Z,0.00
2022-09-13T03:35:03.558Z,0.00
2022-09-13T03:36:03.359Z,0.00
2022-09-13T03:37:02.815Z,0.00
2022-09-13T03:38:03.298Z,0.00
2022-09-13T03:39:02.832Z,0.00
2022-09-13T03:40:03.379Z,0.00
2022-09-13T03:41:03.290Z,0.00
2022-09-13T03:42:03.096Z,0.00
2022-09-13T03:43:03.205Z,0.00
2022-09-13T03:44:03.584Z,0.00
2022-09-13T03:45:03.118Z,0.00
2022-09-13T03:46:03.329Z,0.00
2022-09-13T03:47:03.489Z,0.00
2022-09-13T03:48:03.302Z,0.00
2022-09-13T03:49:03.311Z,0.00
2022-09-13T03:50:03.103Z,0.00
2022-09-13T03:51:03.473Z,0.00
2022-09-13T03:52:03.076Z,0.00
2022-09-13T03:53:03.217Z,0.00
2022-09-13T03:54:03.723Z,0.00
2022-09-13T03:55:03.404Z,0.00
2022-09-13T03:56:03.239Z,0.00
2022-09-13T03:57:02.819Z,0.00
2022-09-13T03:58:02.628Z,0.00
2022-09-13T03:59:03.158Z,0.00
2022-09-13T04:00:02.764Z,0.00
2022-09-13T04:01:02.871Z,0.00
2022-09-13T04:02:02.512Z,0.00
2022-09-13T04:03:02.656Z,0.00
2022-09-13T04:04:02.279Z,0.00
2022-09-13T04:05:02.817Z,0.00
2022-09-13T04:06:02.796Z,0.00
2022-09-13T04:07:02.212Z,0.00
2022-09-13T04:08:02.197Z,0.00
2022-09-13T04:09:02.066Z,0.00
2022-09-13T04:10:01.883Z,0.00
2022-09-13T04:11:02.387Z,0.00
2022-09-13T04:12:01.911Z,0.00
2022-09-13T04:13:01.817Z,0.00
2022-09-13T04:14:02.126Z,0.00
2022-09-13T04:15:01.705Z,0.00
2022-09-13T04:16:01.720Z,0.00
2022-09-13T04:17:02.289Z,0.00
2022-09-13T04:18:02.123Z,0.00
2022-09-13T04:19:02.068Z,0.00
2022-09-13T04:20:02.009Z,0.00
2022-09-13T04:21:02.561Z,0.00
2022-09-13T04:22:02.940Z,0.00
2022-09-13T04:23:02.505Z,0.00
2022-09-13T04:24:02.951Z,0.00
2022-09-13T04:25:02.926Z,0.00
2022-09-13T04:26:02.758Z,0.00
2022-09-13T04:27:01.989Z,0.00
2022-09-13T04:28:01.876Z,0.00
2022-09-13T04:29:02.354Z,0.00
2022-09-13T04:30:02.145Z,0.00
2022-09-13T04:31:01.956Z,0.00
2022-09-13T04:32:02.600Z,0.00
2022-09-13T04:33:02.205Z,0.00
2022-09-13T04:34:02.332Z,0.00
2022-09-13T04:35:02.274Z,0.00
2022-09-13T04:36:02.146Z,0.00
2022-09-13T04:37:02.519Z,0.00
2022-09-13T04:38:02.087Z,4.00
2022-09-13T04:39:02.635Z,4.00
2022-09-13T04:40:02.235Z,0.00
2022-09-13T04:41:02.623Z,4.00
2022-09-13T04:42:02.076Z,4.00
2022-09-13T04:43:01.892Z,4.00
2022-09-13T04:44:01.754Z,8.00
2022-09-13T04:45:02.257Z,8.00
2022-09-13T04:46:01.919Z,8.00
2022-09-13T04:47:02.499Z,12.00
2022-09-13T04:48:02.374Z,16.00
2022-09-13T04:49:02.588Z,16.00
2022-09-13T04:50:02.203Z,20.00
2022-09-13T04:51:02.048Z,24.00
2022-09-13T04:52:02.559Z,24.00
2022-09-13T04:53:02.430Z,28.00
2022-09-13T04:54:02.514Z,36.00
2022-09-13T04:55:02.397Z,40.00
2022-09-13T04:56:02.230Z,44.00
2022-09-13T04:57:02.806Z,52.00
2022-09-13T04:58:02.489Z,56.00
2022-09-13T04:59:02.460Z,68.00
2022-09-13T05:00:02.325Z,72.00
2022-09-13T05:01:02.877Z,80.00
2022-09-13T05:02:02.204Z,84.00
2022-09-13T05:03:02.586Z,92.00
2022-09-13T05:04:02.246Z,100.00
2022-09-13T05:05:02.184Z,108.00
2022-09-13T05:06:02.130Z,116.00
2022-09-13T05:07:02.701Z,124.00
2022-09-13T05:08:02.290Z,136.00
2022-09-13T05:09:02.760Z,152.00
2022-09-13T05:10:02.431Z,164.00
2022-09-13T05:11:02.335Z,172.00
2022-09-13T05:12:02.933Z,184.00
2022-09-13T05:13:02.868Z,192.00
2022-09-13T05:14:02.569Z,200.00
2022-09-13T05:15:02.477Z,212.00
2022-09-13T05:16:02.685Z,220.00
2022-09-13T05:17:01.751Z,228.00
2022-09-13T05:18:02.365Z,232.00
2022-09-13T05:19:02.023Z,240.00
2022-09-13T05:20:01.826Z,244.00
2022-09-13T05:21:01.824Z,256.00
2022-09-13T05:22:03.046Z,268.00
2022-09-13T05:23:02.747Z,280.00
2022-09-13T05:24:02.760Z,288.00
2022-09-13T05:25:02.701Z,296.00
2022-09-13T05:26:02.887Z,312.00
2022-09-13T05:27:01.997Z,332.00
2022-09-13T05:28:01.898Z,352.00
2022-09-13T05:29:01.864Z,376.00
2022-09-13T05:30:02.091Z,404.00
2022-09-13T05:31:02.112Z,424.00
2022-09-13T05:32:02.150Z,452.00
2022-09-13T05:33:02.288Z,468.00
2022-09-13T05:34:02.452Z,496.00
2022-09-13T05:35:02.637Z,524.00
2022-09-13T05:36:02.282Z,552.00
2022-09-13T05:37:02.692Z,580.00
2022-09-13T05:38:02.820Z,604.00
2022-09-13T05:40:17.823Z,600.00
2022-09-13T05:41:02.444Z,560.00
2022-09-13T05:42:02.173Z,584.00
2022-09-13T05:43:02.596Z,616.00
2022-09-13T05:44:10.348Z,620.00
2022-09-13T05:45:02.081Z,612.00
2022-09-13T05:46:02.754Z,612.00
2022-09-13T05:47:02.462Z,600.00
2022-09-13T05:48:03.010Z,608.00
2022-09-13T05:49:02.745Z,620.00
2022-09-13T05:50:10.288Z,632.00
2022-09-13T05:51:02.626Z,636.00
2022-09-13T05:52:02.639Z,632.00
2022-09-13T05:53:03.168Z,640.00
2022-09-13T05:54:02.953Z,644.00
2022-09-13T05:55:02.984Z,664.00
2022-09-13T05:56:02.971Z,700.00
2022-09-13T05:57:01.884Z,724.00
2022-09-13T05:58:01.804Z,732.00
2022-09-13T05:59:01.746Z,752.00
2022-09-13T06:00:01.931Z,776.00
2022-09-13T06:01:01.987Z,808.00
2022-09-13T06:02:02.702Z,848.00
2022-09-13T06:03:02.682Z,888.00
2022-09-13T06:04:02.610Z,916.00
2022-09-13T06:05:02.592Z,940.00
2022-09-13T06:06:02.502Z,948.00
2022-09-13T06:07:02.172Z,964.00
2022-09-13T06:08:02.278Z,972.00
2022-09-13T06:09:02.407Z,968.00
2022-09-13T06:10:02.316Z,980.00
2022-09-13T06:11:02.258Z,1004.00
2022-09-13T06:12:02.891Z,1044.00
2022-09-13T06:13:02.898Z,1076.00
2022-09-13T06:14:02.848Z,1168.00
2022-09-13T06:15:02.733Z,1308.00
2022-09-13T06:16:03.336Z,1436.00
2022-09-13T06:17:02.117Z,1540.00
2022-09-13T06:18:02.069Z,1632.00
2022-09-13T06:19:02.122Z,1652.00
2022-09-13T06:20:02.016Z,1600.00
2022-09-13T06:21:02.310Z,1580.00
2022-09-13T06:22:02.270Z,1628.00
2022-09-13T06:23:02.575Z,1724.00
2022-09-13T06:24:02.540Z,1860.00
2022-09-13T06:25:02.266Z,2044.00
2022-09-13T06:26:02.305Z,2240.00
2022-09-13T06:27:02.965Z,2416.00
2022-09-13T06:28:03.309Z,2596.00
2022-09-13T06:29:03.001Z,2900.00
2022-09-13T06:30:03.006Z,3296.00
2022-09-13T06:31:03.043Z,3624.00
2022-09-13T06:32:02.244Z,3760.00
2022-09-13T06:33:02.163Z,3816.00
2022-09-13T06:34:02.151Z,3928.00
2022-09-13T06:35:02.232Z,4004.00
2022-09-13T06:36:02.435Z,4028.00
2022-09-13T06:37:02.687Z,3972.00
2022-09-13T06:38:02.745Z,3824.00
2022-09-13T06:39:02.875Z,3704.00
2022-09-13T06:40:02.755Z,3628.00
2022-09-13T06:41:02.572Z,3640.00
2022-09-13T06:42:02.989Z,3692.00
2022-09-13T06:43:03.006Z,3748.00
2022-09-13T06:44:02.975Z,3812.00
2022-09-13T06:45:02.847Z,3880.00
2022-09-13T06:46:02.967Z,3960.00
2022-09-13T06:47:02.504Z,4048.00
2022-09-13T06:48:02.462Z,4088.00
2022-09-13T06:49:02.407Z,4128.00
2022-09-13T06:50:02.452Z,4164.00
2022-09-13T06:51:02.803Z,4192.00
2022-09-13T06:52:03.488Z,4184.00
2022-09-13T06:53:03.264Z,4192.00
2022-09-13T06:54:03.361Z,4232.00
2022-09-13T06:55:03.388Z,4336.00
2022-09-13T06:56:03.459Z,4500.00
2022-09-13T06:57:02.900Z,4672.00
2022-09-13T06:58:02.962Z,4852.00
2022-09-13T06:59:02.959Z,4964.00
2022-09-13T07:00:03.083Z,5092.00
2022-09-13T07:01:02.752Z,5228.00
2022-09-13T07:02:02.704Z,5344.00
2022-09-13T07:03:02.598Z,5412.00
2022-09-13T07:04:02.711Z,5408.00
2022-09-13T07:05:02.552Z,5396.00
2022-09-13T07:06:02.549Z,5372.00
2022-09-13T07:07:03.318Z,5336.00
2022-09-13T07:08:03.302Z,5144.00
2022-09-13T07:09:03.260Z,4896.00
2022-09-13T07:10:03.220Z,4620.00
2022-09-13T07:11:03.192Z,4292.00
2022-09-13T07:12:03.011Z,4048.00
2022-09-13T07:13:02.629Z,3912.00
2022-09-13T07:14:02.943Z,3868.00
2022-09-13T07:15:03.059Z,3884.00
2022-09-13T07:16:02.918Z,3936.00
2022-09-13T07:17:02.726Z,4064.00
2022-09-13T07:18:02.169Z,4244.00
2022-09-13T07:19:02.534Z,4444.00
2022-09-13T07:20:02.510Z,4648.00
2022-09-13T07:21:02.182Z,4944.00
2022-09-13T07:22:02.889Z,5336.00
2022-09-13T07:23:02.609Z,5692.00
2022-09-13T07:24:02.562Z,6004.00
2022-09-13T07:25:02.528Z,6260.00
2022-09-13T07:26:02.525Z,6440.00
2022-09-13T07:27:02.747Z,6576.00
2022-09-13T07:28:02.260Z,6668.00
2022-09-13T07:29:02.861Z,6700.00
2022-09-13T07:30:01.992Z,6704.00
2022-09-13T07:31:02.076Z,6776.00
2022-09-13T07:32:01.992Z,6844.00
2022-09-13T07:33:02.193Z,6920.00
2022-09-13T07:34:02.157Z,7036.00
2022-09-13T07:35:02.290Z,7200.00
2022-09-13T07:36:02.249Z,7432.00
2022-09-13T07:37:02.930Z,7712.00
2022-09-13T07:38:02.772Z,7988.00
2022-09-13T07:39:02.818Z,8300.00
2022-09-13T07:40:02.953Z,8616.00
2022-09-13T07:41:02.709Z,8884.00
2022-09-13T07:42:02.765Z,9104.00
2022-09-13T07:43:02.765Z,9312.00
2022-09-13T07:44:03.229Z,9584.00
2022-09-13T07:45:03.296Z,9696.00
2022-09-13T07:46:02.855Z,9876.00
2022-09-13T07:47:02.995Z,10052.00
2022-09-13T07:48:03.649Z,10120.00
2022-09-13T07:49:03.294Z,10260.00
2022-09-13T07:50:03.423Z,10512.00
2022-09-13T07:51:03.396Z,10796.00
2022-09-13T07:52:02.370Z,10904.00
2022-09-13T07:53:02.422Z,10956.00
2022-09-13T07:54:02.870Z,10816.00
2022-09-13T07:55:02.912Z,10996.00
2022-09-13T07:56:02.946Z,11300.00
2022-09-13T07:57:02.948Z,12640.00
2022-09-13T07:58:03.336Z,13572.00
2022-09-13T07:59:02.964Z,13848.00
2022-09-13T08:00:03.090Z,13348.00
2022-09-13T08:01:03.110Z,13160.00
2022-09-13T08:02:02.294Z,12928.00
2022-09-13T08:03:02.451Z,12720.00
2022-09-13T08:04:02.426Z,12884.00
2022-09-13T08:05:02.411Z,12644.00
2022-09-13T08:06:02.397Z,12452.00
2022-09-13T08:07:02.781Z,12632.00
2022-09-13T08:08:02.706Z,12620.00
2022-09-13T08:09:02.779Z,12172.00
2022-09-13T08:10:02.898Z,11556.00
2022-09-13T08:11:02.951Z,11732.00
2022-09-13T08:12:02.812Z,11852.00
2022-09-13T08:13:03.306Z,11984.00
2022-09-13T08:14:03.140Z,11496.00
2022-09-13T08:15:02.753Z,12164.00
2022-09-13T08:16:03.276Z,12280.00
2022-09-13T08:17:02.259Z,13444.00
2022-09-13T08:18:02.105Z,13756.00
2022-09-13T08:19:02.175Z,13748.00
2022-09-13T08:20:03.524Z,14232.00
2022-09-13T08:21:02.235Z,14544.00
2022-09-13T08:22:02.936Z,14372.00
2022-09-13T08:23:02.997Z,14496.00
2022-09-13T08:24:03.409Z,14784.00
2022-09-13T08:25:03.423Z,15072.00
2022-09-13T08:26:03.137Z,14848.00
2022-09-13T08:27:02.427Z,14944.00
2022-09-13T08:28:02.493Z,15520.00
2022-09-13T08:29:02.512Z,14976.00
2022-09-13T08:30:02.595Z,14268.00
2022-09-13T08:31:02.422Z,14912.00
2022-09-13T08:32:02.846Z,14572.00
2022-09-13T08:33:03.080Z,14444.00
2022-09-13T08:34:03.210Z,14616.00
2022-09-13T08:35:02.855Z,14644.00
2022-09-13T08:36:03.191Z,14184.00
2022-09-13T08:37:03.079Z,13992.00
2022-09-13T08:38:03.111Z,13564.00
2022-09-13T08:39:03.073Z,14644.00
2022-09-13T08:40:03.206Z,12492.00
2022-09-13T08:41:03.258Z,11784.00
2022-09-13T08:42:02.427Z,11172.00
2022-09-13T08:43:02.456Z,11052.00
2022-09-13T08:44:02.424Z,12220.00
2022-09-13T08:45:02.755Z,13584.00
2022-09-13T08:46:02.861Z,13440.00
2022-09-13T08:47:02.629Z,13724.00
2022-09-13T08:48:02.701Z,13708.00
2022-09-13T08:49:02.974Z,13808.00
2022-09-13T08:50:02.450Z,13624.00
2022-09-13T08:51:02.437Z,13848.00
2022-09-13T08:52:02.721Z,14080.00
2022-09-13T08:53:02.575Z,14360.00
2022-09-13T08:54:02.525Z,14308.00
2022-09-13T08:55:02.871Z,14188.00
2022-09-13T08:56:02.989Z,14028.00
2022-09-13T08:57:03.207Z,14312.00
2022-09-13T08:58:03.302Z,14268.00
2022-09-13T08:59:03.333Z,14176.00
2022-09-13T09:00:03.371Z,14172.00
2022-09-13T09:01:03.438Z,13752.00
2022-09-13T09:02:02.605Z,14140.00
2022-09-13T09:03:02.563Z,14212.00
2022-09-13T09:04:02.574Z,14604.00
2022-09-13T09:05:02.324Z,14712.00
2022-09-13T09:06:02.606Z,15136.00
2022-09-13T09:07:02.693Z,15808.00
2022-09-13T09:08:02.592Z,16000.00
2022-09-13T09:09:02.568Z,17152.00
2022-09-13T09:10:02.489Z,17024.00
2022-09-13T09:11:02.488Z,17472.00
2022-09-13T09:12:02.979Z,17088.00
2022-09-13T09:13:03.095Z,14644.00
2022-09-13T09:14:03.381Z,15936.00
2022-09-13T09:15:02.978Z,15840.00
2022-09-13T09:16:03.055Z,16672.00
2022-09-13T09:17:02.837Z,16768.00
2022-09-13T09:18:02.678Z,16544.00
2022-09-13T09:19:02.760Z,15872.00
2022-09-13T09:20:02.839Z,15456.00
2022-09-13T09:21:02.753Z,16256.00
2022-09-13T09:22:03.026Z,16160.00
2022-09-13T09:23:03.349Z,16672.00
2022-09-13T09:24:03.148Z,16480.00
2022-09-13T09:25:02.822Z,15776.00
2022-09-13T09:26:02.967Z,15904.00
2022-09-13T09:27:03.463Z,15968.00
2022-09-13T09:28:03.424Z,16448.00
2022-09-13T09:29:03.476Z,16480.00
2022-09-13T09:30:03.395Z,16384.00
2022-09-13T09:31:03.372Z,16928.00
2022-09-13T09:32:02.889Z,16320.00
2022-09-13T09:33:02.946Z,16192.00
2022-09-13T09:34:03.034Z,15520.00
2022-09-13T09:35:03.047Z,15360.00
2022-09-13T09:36:03.043Z,14728.00
2022-09-13T09:37:02.835Z,14824.00
2022-09-13T09:38:02.548Z,13144.00
2022-09-13T09:39:02.561Z,14848.00
2022-09-13T09:40:02.718Z,15968.00
2022-09-13T09:41:02.856Z,16768.00
2022-09-13T09:42:03.558Z,15456.00
2022-09-13T09:43:03.488Z,16384.00
2022-09-13T09:44:03.600Z,16672.00
2022-09-13T09:45:03.669Z,17568.00
2022-09-13T09:46:03.842Z,17024.00
2022-09-13T09:47:03.326Z,16960.00
2022-09-13T09:48:03.407Z,17248.00
2022-09-13T09:49:03.225Z,17376.00
2022-09-13T09:50:03.474Z,17440.00
2022-09-13T09:51:03.194Z,17440.00
2022-09-13T09:52:03.413Z,16576.00
2022-09-13T09:53:03.355Z,16544.00
2022-09-13T09:54:03.029Z,16448.00
2022-09-13T09:55:03.037Z,15968.00
2022-09-13T09:56:02.984Z,16608.00
2022-09-13T09:57:03.810Z,16416.00
2022-09-13T09:58:03.585Z,16448.00
2022-09-13T09:59:03.573Z,16960.00
2022-09-13T10:00:03.562Z,16640.00
2022-09-13T10:01:03.673Z,16384.00
2022-09-13T10:02:03.594Z,15424.00
2022-09-13T10:03:03.660Z,15712.00
2022-09-13T10:04:03.442Z,15264.00
2022-09-13T10:05:03.179Z,15232.00
2022-09-13T10:06:03.194Z,14688.00
2022-09-13T10:07:03.198Z,14480.00
2022-09-13T10:08:02.687Z,14212.00
2022-09-13T10:09:02.653Z,13288.00
2022-09-13T10:10:02.714Z,13696.00
2022-09-13T10:11:03.247Z,13720.00
2022-09-13T10:12:03.685Z,13232.00
2022-09-13T10:13:03.674Z,12448.00
2022-09-13T10:14:03.202Z,12008.00
2022-09-13T10:15:03.295Z,11756.00
2022-09-13T10:16:03.294Z,11576.00
2022-09-13T10:17:03.115Z,11284.00
2022-09-13T10:18:02.602Z,11184.00
2022-09-13T10:19:02.764Z,10988.00
2022-09-13T10:20:02.802Z,10816.00
2022-09-13T10:21:02.759Z,10624.00
2022-09-13T10:22:03.591Z,9944.00
2022-09-13T10:23:03.539Z,9912.00
2022-09-13T10:24:03.659Z,10184.00
2022-09-13T10:25:03.343Z,9764.00
2022-09-13T10:26:03.259Z,9528.00
2022-09-13T10:27:04.015Z,9612.00
2022-09-13T10:28:04.007Z,9376.00
2022-09-13T10:29:03.873Z,9268.00
2022-09-13T10:30:03.845Z,9144.00
2022-09-13T10:31:03.812Z,10080.00
2022-09-13T10:32:02.893Z,9800.00
2022-09-13T10:33:03.530Z,9236.00
2022-09-13T10:34:03.244Z,9292.00
2022-09-13T10:35:03.105Z,9868.00
2022-09-13T10:36:02.991Z,9740.00
2022-09-13T10:37:02.991Z,11120.00
2022-09-13T10:38:03.515Z,10972.00
2022-09-13T10:39:03.428Z,11132.00
2022-09-13T10:40:03.723Z,10884.00
2022-09-13T10:41:03.590Z,10764.00
2022-09-13T10:42:03.424Z,10408.00
2022-09-13T10:43:03.496Z,10472.00
2022-09-13T10:44:07.719Z,11512.00
2022-09-13T10:45:03.579Z,12968.00
2022-09-13T10:46:03.735Z,12808.00
2022-09-13T10:47:03.662Z,14056.00
2022-09-13T10:48:02.688Z,12428.00
2022-09-13T10:49:02.722Z,13600.00
2022-09-13T10:50:03.223Z,12904.00
2022-09-13T10:51:03.525Z,12980.00
2022-09-13T10:52:03.296Z,13712.00
2022-09-13T10:53:03.998Z,13256.00
2022-09-13T10:54:04.077Z,13508.00
2022-09-13T10:55:03.700Z,14396.00
2022-09-13T10:56:03.720Z,14060.00
2022-09-13T10:57:03.650Z,13828.00
2022-09-13T10:58:03.388Z,13924.00
2022-09-13T10:59:03.409Z,14408.00
2022-09-13T11:00:03.357Z,15520.00
2022-09-13T11:01:03.545Z,14680.00
2022-09-13T11:02:03.330Z,14644.00
2022-09-13T11:03:03.220Z,14672.00
2022-09-13T11:04:03.433Z,14528.00
2022-09-13T11:05:03.471Z,14604.00
2022-09-13T11:06:03.442Z,14644.00
2022-09-13T11:07:03.485Z,14944.00
2022-09-13T11:08:02.506Z,15232.00
2022-09-13T11:09:02.550Z,15904.00
2022-09-13T11:10:02.565Z,16544.00
2022-09-13T11:11:02.312Z,16960.00
2022-09-13T11:12:02.280Z,16832.00
2022-09-13T11:13:02.979Z,17312.00
2022-09-13T11:14:02.883Z,17856.00
2022-09-13T11:15:02.893Z,17088.00
2022-09-13T11:16:02.900Z,17888.00
2022-09-13T11:17:02.942Z,18528.00
2022-09-13T11:18:02.554Z,19456.00
2022-09-13T11:19:02.424Z,19488.00
2022-09-13T11:20:02.676Z,20608.00
2022-09-13T11:21:02.567Z,20064.00
2022-09-13T11:22:02.487Z,20096.00
2022-09-13T11:23:03.242Z,19680.00
2022-09-13T11:24:03.396Z,18496.00
2022-09-13T11:25:03.114Z,18464.00
2022-09-13T11:26:03.124Z,17536.00
2022-09-13T11:27:03.043Z,17088.00
2022-09-13T11:28:02.836Z,16800.00
2022-09-13T11:29:02.845Z,16768.00
2022-09-13T11:30:02.717Z,16352.00
2022-09-13T11:31:02.733Z,17088.00
2022-09-13T11:32:02.778Z,18432.00
2022-09-13T11:33:02.809Z,19616.00
2022-09-13T11:34:02.993Z,22016.00
2022-09-13T11:35:02.796Z,21728.00
2022-09-13T11:36:03.070Z,22496.00
2022-09-13T11:37:02.955Z,23296.00
2022-09-13T11:38:02.835Z,24544.00
2022-09-13T11:39:02.752Z,25504.00
2022-09-13T11:40:02.895Z,24928.00
2022-09-13T11:41:03.073Z,24320.00
2022-09-13T11:42:02.693Z,25408.00
2022-09-13T11:43:03.276Z,25312.00
2022-09-13T11:44:03.359Z,25408.00
2022-09-13T11:45:03.327Z,24064.00
2022-09-13T11:46:03.454Z,19232.00
2022-09-13T11:47:03.186Z,17568.00
2022-09-13T11:48:03.857Z,16576.00
2022-09-13T11:49:03.816Z,15128.00
2022-09-13T11:50:03.829Z,18560.00
2022-09-13T11:51:03.988Z,18464.00
2022-09-13T11:52:04.032Z,17792.00
2022-09-13T11:53:03.546Z,20832.00
2022-09-13T11:54:03.617Z,13972.00
2022-09-13T11:55:03.188Z,16896.00
2022-09-13T11:56:03.157Z,23968.00
2022-09-13T11:57:03.219Z,24448.00
2022-09-13T11:58:03.824Z,21536.00
2022-09-13T11:59:03.891Z,17888.00
2022-09-13T12:00:03.867Z,14336.00
2022-09-13T12:01:04.012Z,19072.00
2022-09-13T12:02:03.891Z,14084.00
2022-09-13T12:03:02.741Z,18080.00
2022-09-13T12:04:02.556Z,11764.00
2022-09-13T12:05:21.563Z,11472.00
2022-09-13T12:06:02.592Z,10596.00
2022-09-13T12:07:02.170Z,13784.00
2022-09-13T12:08:02.389Z,9328.00
2022-09-13T12:09:02.433Z,12580.00
2022-09-13T12:10:02.746Z,17248.00
2022-09-13T12:11:02.294Z,15456.00
2022-09-13T12:12:02.502Z,10564.00
2022-09-13T12:13:03.186Z,7044.00
2022-09-13T12:14:02.798Z,7260.00
2022-09-13T12:15:03.030Z,6712.00
2022-09-13T12:16:02.584Z,7260.00
2022-09-13T12:17:03.234Z,7016.00
2022-09-13T12:18:02.036Z,10404.00
2022-09-13T12:19:02.124Z,8048.00
2022-09-13T12:20:02.618Z,9956.00
2022-09-13T12:21:02.493Z,11588.00
2022-09-13T12:22:02.322Z,13704.00
2022-09-13T12:23:02.955Z,12676.00
2022-09-13T12:24:02.687Z,14004.00
2022-09-13T12:25:02.636Z,14848.00
2022-09-13T12:26:02.618Z,15200.00
2022-09-13T12:27:02.596Z,15776.00
2022-09-13T12:28:03.212Z,14460.00